This is the latest recevied weather packets stored in our database for station/object KE8AFF-13. If no packets are shown the sender has not sent any weather packets the latest 1 day(s).
| Time | Temp. | Humidity | Pressure | Rain* | Wind** | Luminosity | Snow |
|---|---|---|---|---|---|---|---|
| 1836274571 | 19.44° C | 83% | 1020.1 hPa | 0 mm | 0.45 m/s, 180° | 0 W/m² | - |
| 1836274425 | 19.44° C | 82% | 1020.3 hPa | 0 mm | 0.45 m/s, 110° | 0 W/m² | - |
| 1836274269 | 19.44° C | 83% | 1020.1 hPa | 0 mm | 0 m/s | 0 W/m² | - |
| 1836274123 | 19.44° C | 83% | 1020.3 hPa | 0 mm | 0.45 m/s, 168° | 0 W/m² | - |
| 1836273968 | 19.44° C | 83% | 1020.1 hPa | 0 mm | 1.34 m/s, 98° | 0 W/m² | - |
| 1778037779 | 7.78° C | 99% | 1008.1 hPa | 1.27 mm | 1.34 m/s, 338° | 0 W/m² | - |
| 1778037475 | 8.33° C | 99% | 1008 hPa | 1.78 mm | 2.68 m/s, 47° | 0 W/m² | - |
| 1778037173 | 8.33° C | 99% | 1008.1 hPa | 1.78 mm | 0.89 m/s, 326° | 0 W/m² | - |
| 1778036871 | 8.33° C | 99% | 1008.5 hPa | 2.29 mm | 1.79 m/s, 317° | 0 W/m² | - |
| 1778036569 | 8.33° C | 99% | 1008.7 hPa | 3.05 mm | 1.79 m/s, 338° | 0 W/m² | - |
| 1778036265 | 8.33° C | 99% | 1008.5 hPa | 3.05 mm | 1.79 m/s, 16° | 0 W/m² | - |
| 1778035961 | 8.33° C | 99% | 1008.6 hPa | 1.78 mm | 1.34 m/s, 341° | 0 W/m² | - |
| 1778035659 | 8.33° C | 99% | 1008.6 hPa | 1.27 mm | 1.34 m/s, 230° | 0 W/m² | - |
| 1778035355 | 8.33° C | 99% | 1008.8 hPa | 1.27 mm | 1.34 m/s, 338° | 0 W/m² | - |
| 1778035051 | 8.33° C | 99% | 1008.7 hPa | 1.78 mm | 2.24 m/s, 348° | 0 W/m² | - |
| 1778034749 | 8.33° C | 99% | 1009 hPa | 1.27 mm | 3.13 m/s, 351° | 0 W/m² | - |
| 1778034445 | 8.33° C | 99% | 1008.9 hPa | 1.27 mm | 2.24 m/s, 346° | 0 W/m² | - |
| 1778034143 | 8.33° C | 99% | 1008.8 hPa | 1.78 mm | 1.79 m/s, 330° | 0 W/m² | - |
| 1778033841 | 8.33° C | 99% | 1009.1 hPa | 3.05 mm | 2.24 m/s, 356° | 0 W/m² | - |
| 1778033538 | 8.33° C | 99% | 1008.6 hPa | 2.29 mm | 4.02 m/s, 343° | 0 W/m² | - |
| 1778033234 | 8.33° C | 99% | 1008.9 hPa | 3.05 mm | 2.68 m/s, 340° | 0 W/m² | - |
| 1778032933 | 8.89° C | 99% | 1008.8 hPa | 3.05 mm | 3.13 m/s, 6° | 0 W/m² | - |
| 1778032630 | 9.44° C | 99% | 1008.6 hPa | 4.32 mm | 2.24 m/s, 1° | 0 W/m² | - |
| 1778032327 | 9.44° C | 99% | 1008.7 hPa | 4.32 mm | 0.45 m/s, 279° | 0 W/m² | - |
| 1778032024 | 9.44° C | 99% | 1008.3 hPa | 3.05 mm | 1.34 m/s, 10° | 0 W/m² | - |
* Rain latest hour (hover to see other rain measurements)
** Current wind speed in m/s (hover to see current wind gust speed)